This is the latest recevied weather packets stored in our database for station/object KQ7A. If no packets are shown the sender has not sent any weather packets the latest 1 day(s).
| Time | Temp. | Humidity | Pressure | Rain* | Wind** | Luminosity | Snow |
|---|---|---|---|---|---|---|---|
| 1778096539 | 21.11° C | 48% | 1022.3 hPa | 0 mm | - | 782 W/m² | - |
| 1778095326 | 21.11° C | 34% | 1022.6 hPa | 0 mm | - | 798 W/m² | - |
| 1778095018 | 21.11° C | 41% | 1022.4 hPa | 0 mm | - | 808 W/m² | - |
| 1778093805 | 20.56° C | 44% | 1022.4 hPa | 0 mm | - | 839 W/m² | - |
| 1778093501 | 20.56° C | 42% | 1022.7 hPa | 0 mm | - | 849 W/m² | - |
| 1778093199 | 20° C | 40% | 1022.7 hPa | 0 mm | - | 851 W/m² | - |
| 1778091381 | 19.44° C | 54% | 1022.8 hPa | 0 mm | - | 902 W/m² | - |
| 1778091078 | 19.44° C | 46% | 1022.6 hPa | 0 mm | - | 914 W/m² | - |
| 1778090471 | 18.89° C | 48% | 1022.7 hPa | 0 mm | - | 942 W/m² | - |
| 1778089258 | 18.89° C | 52% | 1022.7 hPa | 0 mm | - | 901 W/m² | - |
| 1778088956 | 18.89° C | 47% | 1022.9 hPa | 0 mm | - | 874 W/m² | - |
| 1778087743 | 17.78° C | 62% | 1022.9 hPa | 0 mm | - | 832 W/m² | - |
| 1778087138 | 17.78° C | 49% | 1022.4 hPa | 0 mm | - | 774 W/m² | - |
| 1778084404 | 15° C | 67% | 1022.4 hPa | 0 mm | - | 589 W/m² | - |
| 1778083496 | 15° C | 64% | 1022.3 hPa | 0 mm | - | 537 W/m² | - |
| 1778083193 | 15° C | 67% | 1022.4 hPa | 0 mm | - | 487 W/m² | - |
| 1778082891 | 14.44° C | 67% | 1022.4 hPa | 0 mm | - | 451 W/m² | - |
| 1778081783 | 12.78° C | 70% | 1022.3 hPa | 0 mm | - | 351 W/m² | - |
| 1778081177 | 12.78° C | 69% | 1022.3 hPa | 0 mm | - | 294 W/m² | - |
| 1778080875 | 12.78° C | 73% | 1022.2 hPa | 0 mm | - | 292 W/m² | - |
| 1778078150 | 11.67° C | 73% | 1022 hPa | 0 mm | - | 104 W/m² | - |
| 1778076940 | 10° C | 78% | 1021.9 hPa | 0 mm | - | 62 W/m² | - |
| 1778075122 | 6.11° C | 94% | 1021.3 hPa | 0 mm | - | 29 W/m² | - |
| 1778074818 | 6.11° C | 94% | 1021.2 hPa | 0 mm | - | 23 W/m² | - |
| 1778074212 | 5.56° C | 94% | 1021.2 hPa | 0 mm | - | 19 W/m² | - |
* Rain latest hour (hover to see other rain measurements)
** Current wind speed in m/s (hover to see current wind gust speed)